Terminal Aerodrome Forecast
Issued by NWS

Home | Current Version | Previous Version | Text Only | Print | Product List | Glossary On
Versions: 1 2 3 4 5 6 7 8 9 10 11 12 13 14 15 16 17 18 19
966
FTUS46 KMFR 220549
TAFOTH
TAF
KOTH 220549Z 2206/2306 14005KT P6SM -SHRA SCT025 BKN050
     FM220700 14005KT P6SM -RA SCT020 OVC035 WS020/16040KT
     FM220900 15014G22KT P6SM -RA SCT020 OVC035 WS020/16040KT
     FM221300 18018G26KT P6SM -SHRA BKN040 BKN070
     FM230200 17009KT P6SM -SHRA BKN040=

USA.gov is the U.S. government's official web portal to all federal, state and local government web resources and services.